McVille, ND (58254)

2:27 AM CDT on September 20, 2014 (GMT -0500)
Grand Forks Air Force Base | Change Station
CLOSE
Current Station
Airport
Location: Grand Forks AFB,
Elevation: 912 ft
Nearby Weather Stations

Elev 912 ft 47.96 °N, 97.40 °W | Updated 29 minutes ago

Clear
Clear
54 °F
Feels Like 54 °F
N
5
Wind Variable Wind from NW

Today
High -- | Low -- °F
--% Chance of Precip.
Yesterday
High -- | Low -- °F
Precip. -- in
7:16 AM 7:34 PM
Waning Crescent, 14% visible
Pressure 29.76 in
Visibility 10.0 miles
Clouds Clear
Dew Point 53 °F
Humidity 99%
Rainfall 0.00 in
Snow Depth Not available.
UV 0 out of 12
Pollen 3.60 out of 12
Air Quality Not available.
Flu Activity Not available.
METAR KRDR 200658Z AUTO 32004KT 10SM CLR 12/12 A2975 RMK AO2 SLP078 T01200119

More Conditions Fewer Conditions

Pressure 29.76 in
Visibility 10.0 miles
Clouds Clear
Dew Point 53 °F
Humidity 99%
Rainfall 0.00 in
Snow Depth Not available.
UV 0 out of 12
Pollen 3.60 out of 12
Air Quality Not available.
Flu Activity Not available.
METAR KRDR 200658Z AUTO 32004KT 10SM CLR 12/12 A2975 RMK AO2 SLP078 T01200119

More Conditions Fewer Conditions

10-Day Weather Forecast

Almanac

Astronomy

Sep. 20, 2014 Rise Set
Actual Time 7:16 AM CDT 7:34 PM CDT
Civil Twilight 6:45 AM CDT 8:05 PM CDT
Nautical Twilight 6:09 AM CDT 8:41 PM CDT
Astronomical Twilight 5:31 AM CDT 9:19 PM CDT
Moon 3:45 AM CDT 5:48 PM CDT
Length of Visible Light 13h 19m
Length of Day
12h 17m
Tomorrow will be 3m 26s shorter.
Waning Crescent, 14% of the Moon is Illuminated
Today
Waning Crescent
Sep 24
New
Oct 1
First Quarter
Oct 8
Full
Oct 15
Last Quarter

Today's Extremes

State Highs State Lows

Community

WunderPhotos

Upload Photos

1,754,792 photos uploaded!

WunderBlogs® & News

Nearby

Snow Depth

Station Depth Elevation
No new snow has been reported.

Earthquake Activity

City Distance Mag. Time & Date
No recent earthquake activity has been reported nearby.
Minimum magnitude displayed is 2.5.

Coastal Water Temperatures

Place Temperature
No Stations Reporting

Nearby Weather Stations